Time;durP1;ratioP1;P1;durP2;ratioP2;P2;SDS_P1;SDS_P2;PMS_P1;PMS_P2;Temp;Humidity;BMP_temperature;BMP_pressure;BME280_temperature;BME280_humidity;BME280_pressure;Samples;Min_cycle;Max_cycle;Signal;HPM_P1;HPM_P2
2021/01/26 00:00:42;;;;;;;59.53;12.90;;;20.70;63.60;;;;;;4963234;28;101169;-79
2021/01/26 00:03:08;;;;;;;46.38;13.75;;;20.70;64.10;;;;;;4962397;28;112355;-79
2021/01/26 00:05:39;;;;;;;35.20;12.68;;;20.70;64.20;;;;;;4960711;28;101636;-80
2021/01/26 00:08:05;;;;;;;59.92;13.68;;;20.60;63.80;;;;;;4961959;28;110573;-80
2021/01/26 00:10:30;;;;;;;45.60;13.18;;;20.70;64.10;;;;;;4955385;28;101476;-79
2021/01/26 00:12:56;;;;;;;58.80;12.88;;;20.60;64.20;;;;;;4946565;28;105975;-80
2021/01/26 00:15:22;;;;;;;60.58;13.40;;;20.60;64.40;;;;;;4959656;28;129854;-79
2021/01/26 00:17:47;;;;;;;54.25;13.25;;;20.60;64.40;;;;;;4939062;28;111523;-78
2021/01/26 00:20:16;;;;;;;52.28;13.90;;;20.60;64.40;;;;;;4979039;28;108666;-79
2021/01/26 00:22:52;;;;;;;54.35;13.52;;;20.50;64.50;;;;;;4945811;28;100273;-79
2021/01/26 00:25:24;;;;;;;52.83;13.02;;;20.50;64.80;;;;;;4931269;28;104607;-80
2021/01/26 00:31:11;;;;;;;64.15;15.02;;;20.50;65.50;;;;;;4981649;28;101777;-79
2021/01/26 00:45:53;;;;;;;56.85;13.20;;;20.50;65.60;;;;;;4995769;22;100433;-87
2021/01/26 00:48:19;;;;;;;55.92;13.43;;;20.40;65.50;;;;;;4972040;28;102416;-86
2021/01/26 00:50:44;;;;;;;55.35;13.25;;;20.50;65.70;;;;;;4966011;28;102805;-86
2021/01/26 00:53:14;;;;;;;61.78;13.07;;;20.50;65.90;;;;;;4942888;28;101028;-85
2021/01/26 00:55:40;;;;;;;;;;;20.40;66.20;;;;;;4971583;28;100199;-85
2021/01/26 00:58:06;;;;;;;69.82;14.48;;;20.50;66.70;;;;;;4952961;28;103544;-86
2021/01/26 01:00:36;;;;;;;69.32;14.00;;;20.50;66.50;;;;;;4982487;28;101548;-85
2021/01/26 01:03:02;;;;;;;71.28;14.38;;;20.50;66.30;;;;;;4983109;28;101033;-85
2021/01/26 01:05:35;;;;;;;62.72;13.00;;;20.50;66.60;;;;;;4947464;28;100568;-85
2021/01/26 01:08:05;;;;;;;68.93;14.93;;;20.50;66.50;;;;;;4951532;28;100923;-85
2021/01/26 01:10:38;;;;;;;67.00;13.90;;;20.40;67.20;;;;;;4978854;28;100568;-86
2021/01/26 01:13:52;;;;;;;60.53;13.48;;;20.40;66.50;;;;;;4948933;28;100881;-86
2021/01/26 01:16:27;;;;;;;68.47;13.25;;;20.40;66.50;;;;;;4961498;28;101158;-87
2021/01/26 01:18:54;;;;;;;54.95;13.73;;;20.40;66.70;;;;;;4943453;28;102566;-86
2021/01/26 01:21:23;;;;;;;53.17;12.48;;;20.30;66.40;;;;;;4949177;28;101466;-86
2021/01/26 01:23:50;;;;;;;55.60;13.40;;;20.40;66.50;;;;;;4957054;28;101382;-86
2021/01/26 01:26:15;;;;;;;63.50;13.13;;;20.30;66.30;;;;;;4949953;28;101070;-85
2021/01/26 01:28:41;;;;;;;59.88;11.70;;;20.30;66.20;;;;;;4943357;28;103875;-84
2021/01/26 01:31:10;;;;;;;59.75;13.05;;;20.30;66.40;;;;;;4944212;28;102343;-85
2021/01/26 01:33:36;;;;;;;56.03;12.27;;;20.40;66.40;;;;;;4946049;28;101116;-85
2021/01/26 01:36:02;;;;;;;49.75;12.35;;;20.40;66.50;;;;;;4945768;28;101058;-86
2021/01/26 01:38:34;;;;;;;61.88;12.38;;;20.30;66.30;;;;;;4944377;28;103002;-86
2021/01/26 01:41:00;;;;;;;49.78;11.60;;;20.40;66.60;;;;;;4943096;28;101325;-84
2021/01/26 01:43:26;;;;;;;41.45;11.63;;;20.30;66.80;;;;;;4956133;28;101193;-84
2021/01/26 01:45:51;;;;;;;52.25;12.18;;;20.30;66.80;;;;;;4938879;28;101001;-85
2021/01/26 01:48:23;;;;;;;45.38;11.20;;;20.30;67.00;;;;;;4938168;28;100913;-85
2021/01/26 01:51:16;;;;;;;43.45;11.27;;;20.30;67.70;;;;;;4938976;28;101177;-85
2021/01/26 01:53:45;;;;;;;43.13;11.85;;;20.30;67.80;;;;;;4954428;28;101196;-86
2021/01/26 01:56:18;;;;;;;39.20;11.32;;;20.30;67.90;;;;;;4942786;28;101234;-86
2021/01/26 01:58:47;;;;;;;44.65;11.82;;;20.20;67.70;;;;;;4943484;28;102101;-87
2021/01/26 02:01:20;;;;;;;41.10;10.82;;;20.30;67.70;;;;;;4942980;28;101187;-84
2021/01/26 02:04:19;;;;;;;45.92;10.50;;;20.30;67.90;;;;;;4943535;28;101053;-86
2021/01/26 02:06:51;;;;;;;48.67;11.30;;;20.20;68.00;;;;;;4936028;28;101576;-85
2021/01/26 02:09:19;;;;;;;41.63;10.32;;;20.30;68.20;;;;;;4920955;28;100868;-86
2021/01/26 02:11:45;;;;;;;36.10;10.32;;;20.20;68.10;;;;;;4938359;28;101167;-86
2021/01/26 02:14:11;;;;;;;40.13;10.57;;;20.20;68.00;;;;;;4939070;28;100497;-85
2021/01/26 02:17:00;;;;;;;42.25;10.65;;;20.20;67.90;;;;;;4939392;28;101232;-84
2021/01/26 02:19:29;;;;;;;41.00;10.53;;;20.20;67.90;;;;;;4943962;28;101073;-85
2021/01/26 02:22:13;;;;;;;37.30;10.52;;;20.20;67.80;;;;;;4955124;28;100949;-84
2021/01/26 02:25:00;;;;;;;42.67;10.65;;;20.20;67.70;;;;;;4953396;28;101955;-83
2021/01/26 02:27:40;;;;;;;33.85;9.80;;;20.20;67.80;;;;;;4969969;28;101332;-86
2021/01/26 02:30:21;;;;;;;35.58;9.82;;;20.20;67.90;;;;;;4935609;28;104131;-85
2021/01/26 02:33:25;;;;;;;40.50;9.88;;;20.20;67.80;;;;;;4952598;28;103507;-85
2021/01/26 02:36:16;;;;;;;28.85;9.68;;;20.20;67.70;;;;;;4952262;28;101439;-85
2021/01/26 02:38:54;;;;;;;33.92;9.70;;;20.20;67.90;;;;;;4940021;28;101321;-83
2021/01/26 02:41:34;;;;;;;39.38;10.32;;;20.10;68.20;;;;;;4948693;28;102036;-84
2021/01/26 02:44:02;;;;;;;;;;;20.10;68.40;;;;;;4939155;28;101401;-84
2021/01/26 02:46:41;;;;;;;28.75;9.00;;;20.10;68.50;;;;;;4959237;28;100953;-85
2021/01/26 02:49:17;;;;;;;40.55;9.45;;;20.10;68.50;;;;;;4923854;28;102782;-84
2021/01/26 02:51:55;;;;;;;31.45;9.30;;;20.10;68.50;;;;;;4949277;28;103201;-83
2021/01/26 02:54:40;;;;;;;37.65;10.20;;;20.20;69.40;;;;;;4946478;28;101351;-85
2021/01/26 02:57:26;;;;;;;33.38;9.35;;;20.20;69.80;;;;;;4974433;28;100994;-85
2021/01/26 02:59:57;;;;;;;30.77;9.82;;;20.20;69.60;;;;;;4959145;28;100976;-84
2021/01/26 03:02:35;;;;;;;28.95;9.27;;;20.20;69.50;;;;;;4940871;28;101836;-85
2021/01/26 03:05:17;;;;;;;28.65;9.00;;;20.20;69.60;;;;;;4958992;28;101048;-85
2021/01/26 03:07:46;;;;;;;28.30;8.93;;;20.20;69.60;;;;;;4951423;28;100822;-84
2021/01/26 03:10:13;;;;;;;25.80;8.80;;;20.20;69.50;;;;;;4977536;28;100894;-83
2021/01/26 03:12:40;;;;;;;30.50;9.02;;;20.20;69.50;;;;;;4937933;28;101802;-84
2021/01/26 03:15:13;;;;;;;32.08;9.20;;;20.20;69.30;;;;;;4922592;28;100747;-84
2021/01/26 03:17:47;;;;;;;24.58;8.75;;;20.20;69.50;;;;;;4923434;28;101197;-84
2021/01/26 03:20:22;;;;;;;28.00;8.85;;;20.20;69.50;;;;;;4979104;28;101307;-83
2021/01/26 03:22:50;;;;;;;24.23;8.10;;;20.20;69.50;;;;;;4947770;28;101084;-85
2021/01/26 03:25:43;;;;;;;27.58;9.00;;;20.20;69.60;;;;;;4954932;28;101350;-85
2021/01/26 03:28:25;;;;;;;23.45;8.30;;;20.20;69.50;;;;;;4943471;28;101442;-85
2021/01/26 03:31:00;;;;;;;23.38;7.68;;;20.10;69.40;;;;;;4935907;28;100847;-85
2021/01/26 03:33:30;;;;;;;27.13;8.43;;;20.20;69.50;;;;;;4959509;28;101846;-84
2021/01/26 03:35:56;;;;;;;25.07;8.27;;;20.10;69.40;;;;;;4937113;28;101039;-85
2021/01/26 03:38:46;;;;;;;20.50;8.38;;;20.10;69.50;;;;;;4943685;28;100634;-86
2021/01/26 03:41:18;;;;;;;28.45;7.85;;;20.10;69.40;;;;;;4963366;28;101158;-84
2021/01/26 03:43:45;;;;;;;24.90;7.72;;;20.10;69.50;;;;;;4945547;28;100890;-84
2021/01/26 03:46:14;;;;;;;25.60;7.32;;;20.10;69.40;;;;;;4944670;28;101084;-85
2021/01/26 03:49:02;;;;;;;22.83;7.05;;;20.10;69.70;;;;;;4957436;28;101315;-85
2021/01/26 03:51:55;;;;;;;18.27;8.30;;;20.10;69.70;;;;;;4976525;28;100835;-85
2021/01/26 03:54:33;;;;;;;20.65;7.47;;;20.10;69.80;;;;;;4974678;28;101958;-84
2021/01/26 03:57:26;;;;;;;23.45;8.20;;;20.10;70.00;;;;;;4959872;28;100904;-83
2021/01/26 04:00:34;;;;;;;18.83;6.53;;;20.10;69.80;;;;;;4981873;28;100823;-84
2021/01/26 04:03:35;;;;;;;16.55;7.10;;;20.10;70.00;;;;;;4962583;28;101214;-84
2021/01/26 04:06:11;;;;;;;23.95;7.68;;;20.10;70.10;;;;;;4966791;28;101258;-85
2021/01/26 04:08:48;;;;;;;24.83;7.68;;;20.10;70.30;;;;;;4945478;28;101068;-84
2021/01/26 04:11:30;;;;;;;26.17;7.88;;;20.10;70.40;;;;;;4941891;28;100989;-84
2021/01/26 04:14:18;;;;;;;23.27;7.47;;;20.10;70.10;;;;;;4965826;28;101390;-85
2021/01/26 04:17:11;;;;;;;21.45;7.63;;;20.10;70.10;;;;;;4955666;28;101666;-86
2021/01/26 04:19:55;;;;;;;21.42;7.00;;;20.10;70.10;;;;;;4942746;28;101201;-85
2021/01/26 04:22:27;;;;;;;20.85;7.45;;;20.10;70.10;;;;;;4953588;28;101083;-86
2021/01/26 04:24:53;;;;;;;22.02;6.18;;;20.10;70.10;;;;;;4937454;28;101406;-84
2021/01/26 04:27:20;;;;;;;17.70;7.05;;;20.10;70.40;;;;;;4933733;28;100997;-85
2021/01/26 04:29:49;;;;;;;18.77;6.88;;;20.00;70.30;;;;;;4942389;28;100999;-84
2021/01/26 04:32:24;;;;;;;16.50;6.95;;;20.10;70.40;;;;;;4937354;28;101324;-84
2021/01/26 04:35:21;;;;;;;19.52;7.03;;;20.00;70.30;;;;;;4962252;28;101010;-85
2021/01/26 04:38:26;;;;;;;15.52;6.47;;;20.10;70.50;;;;;;4932207;28;101394;-82
2021/01/26 04:41:06;;;;;;;15.02;6.70;;;20.10;70.40;;;;;;4948577;28;101238;-83
2021/01/26 04:43:46;;;;;;;20.45;6.45;;;20.00;70.10;;;;;;4948059;28;101584;-84
2021/01/26 04:46:29;;;;;;;15.98;6.82;;;20.00;70.20;;;;;;4944702;28;101196;-82
2021/01/26 04:49:20;;;;;;;15.85;6.18;;;20.00;70.10;;;;;;4946727;28;102902;-81
2021/01/26 04:51:54;;;;;;;17.98;6.57;;;20.00;69.90;;;;;;4957770;28;101197;-81
2021/01/26 04:54:29;;;;;;;17.08;6.70;;;20.00;70.00;;;;;;4936986;28;101133;-82
2021/01/26 04:57:09;;;;;;;17.80;6.18;;;20.00;70.00;;;;;;4979388;28;101163;-81
2021/01/26 04:59:50;;;;;;;17.63;6.10;;;20.00;69.80;;;;;;4936092;28;102825;-81
2021/01/26 05:02:28;;;;;;;20.92;5.47;;;20.00;70.00;;;;;;4952715;28;101193;-81
2021/01/26 05:05:11;;;;;;;16.83;6.03;;;20.00;69.90;;;;;;4979948;28;101581;-82
2021/01/26 05:07:44;;;;;;;13.75;6.22;;;20.00;70.10;;;;;;4933653;28;100277;-82
2021/01/26 05:10:15;;;;;;;14.45;6.00;;;20.00;70.30;;;;;;4941017;28;102666;-81
2021/01/26 05:12:52;;;;;;;17.20;5.95;;;19.90;70.30;;;;;;4956640;28;101110;-81
2021/01/26 05:15:22;;;;;;;11.40;5.80;;;19.90;70.00;;;;;;4964990;28;101077;-83
2021/01/26 05:17:52;;;;;;;14.20;5.50;;;19.90;70.10;;;;;;4967202;28;101104;-82
2021/01/26 05:20:24;;;;;;;18.63;5.70;;;19.90;70.00;;;;;;4957180;28;103607;-81
2021/01/26 05:22:51;;;;;;;14.57;5.97;;;20.00;70.00;;;;;;4941673;28;100940;-83
2021/01/26 05:25:23;;;;;;;11.73;5.57;;;20.00;69.80;;;;;;4971673;28;101033;-84
2021/01/26 05:27:49;;;;;;;12.85;5.15;;;19.90;69.80;;;;;;4955278;28;101008;-84
2021/01/26 05:30:27;;;;;;;11.68;5.20;;;19.90;69.80;;;;;;4964778;28;103837;-84
2021/01/26 05:32:54;;;;;;;12.25;5.15;;;19.90;69.60;;;;;;4970736;28;101168;-84
2021/01/26 05:35:20;;;;;;;13.88;5.45;;;19.90;69.60;;;;;;4966796;28;101694;-85
2021/01/26 05:37:47;;;;;;;16.55;6.22;;;19.90;69.60;;;;;;4970054;28;100878;-85
2021/01/26 05:40:17;;;;;;;19.45;5.75;;;19.90;69.20;;;;;;4939550;28;100983;-86
2021/01/26 05:46:34;;;;;;;11.05;5.47;;;19.80;69.30;;;;;;4961089;28;101097;-85
2021/01/26 05:49:02;;;;;;;13.77;5.43;;;19.80;69.40;;;;;;4966480;28;100463;-86
2021/01/26 05:51:28;;;;;;;10.77;4.60;;;19.80;69.20;;;;;;4979781;28;101852;-87
2021/01/26 05:54:05;;;;;;;10.15;5.28;;;19.80;69.10;;;;;;4943638;28;102086;-86
2021/01/26 05:56:31;;;;;;;14.02;5.07;;;19.90;69.70;;;;;;4942569;28;100673;-85
2021/01/26 05:58:57;;;;;;;15.73;5.35;;;19.80;70.10;;;;;;4961226;28;100533;-86
2021/01/26 06:01:22;;;;;;;17.38;5.30;;;19.80;70.40;;;;;;4969622;28;103282;-85
2021/01/26 06:04:04;;;;;;;17.77;5.10;;;19.80;70.20;;;;;;4959036;28;100347;-86
2021/01/26 06:06:30;;;;;;;12.93;5.40;;;19.80;70.10;;;;;;4969351;28;101212;-86
2021/01/26 06:08:57;;;;;;;11.75;4.55;;;19.80;70.60;;;;;;4945170;28;100899;-86
2021/01/26 06:18:17;;;;;;;11.45;4.60;;;19.80;71.10;;;;;;4978213;28;100917;-80
2021/01/26 06:24:40;;;;;;;16.10;5.32;;;19.80;71.80;;;;;;4959597;28;101058;-78
2021/01/26 06:31:12;;;;;;;15.23;4.78;;;19.90;71.20;;;;;;4944934;28;101912;-79
2021/01/26 06:34:27;;;;;;;;;;;;;;;;;;;;;
2021/01/26 06:40:51;;;;;;;;;;;;;;;;;;;;;
2021/01/26 06:43:23;;;;;;;10.15;4.55;;;19.90;70.70;;;;;;4965066;28;109966;-78
2021/01/26 06:49:17;;;;;;;10.50;4.57;;;19.90;70.50;;;;;;4978408;28;101437;-80
2021/01/26 06:51:58;;;;;;;11.18;4.07;;;19.90;70.30;;;;;;4959299;28;102669;-78
2021/01/26 06:54:59;;;;;;;;;;;;;;;;;;;;;
2021/01/26 06:57:33;;;;;;;18.27;4.20;;;19.90;70.00;;;;;;4970602;28;108161;-80
2021/01/26 07:00:27;;;;;;;20.00;4.82;;;19.80;69.70;;;;;;4944217;28;102565;-79
2021/01/26 07:03:30;;;;;;;12.75;4.43;;;19.90;69.90;;;;;;4948743;28;103337;-80
2021/01/26 07:06:14;;;;;;;16.02;4.88;;;19.80;70.20;;;;;;4955821;28;101464;-78
2021/01/26 07:09:08;;;;;;;13.48;4.22;;;19.80;69.90;;;;;;4964303;28;101125;-80
2021/01/26 07:11:42;;;;;;;25.63;4.82;;;19.80;70.10;;;;;;4944705;28;107087;-77
2021/01/26 07:14:23;;;;;;;9.75;3.95;;;19.80;70.20;;;;;;4947803;28;102677;-79
2021/01/26 07:17:01;;;;;;;12.32;4.10;;;19.80;70.00;;;;;;4961156;28;102032;-79
2021/01/26 07:20:04;;;;;;;16.17;4.32;;;19.80;70.00;;;;;;4940093;28;102075;-78
2021/01/26 07:23:11;;;;;;;;;;;;;;;;;;;;;
2021/01/26 07:26:23;;;;;;;;;;;;;;;;;;;;;
2021/01/26 07:42:30;;;;;;;11.45;3.80;;;19.70;68.20;;;;;;4963127;22;102162;-83
2021/01/26 07:45:13;;;;;;;12.93;3.85;;;19.70;67.60;;;;;;4961176;28;101287;-82
2021/01/26 07:47:46;;;;;;;15.13;4.32;;;19.70;68.30;;;;;;4979791;28;104026;-82
2021/01/26 07:50:32;;;;;;;12.80;3.60;;;19.70;68.20;;;;;;4962411;28;100861;-83
2021/01/26 07:53:09;;;;;;;12.07;3.83;;;19.70;67.90;;;;;;4982169;28;101306;-83
2021/01/26 07:55:40;;;;;;;13.73;3.65;;;19.60;68.00;;;;;;4966537;28;101175;-83
2021/01/26 07:58:08;;;;;;;12.00;3.85;;;19.70;68.10;;;;;;4946043;28;103333;-82
2021/01/26 08:00:40;;;;;;;10.13;3.50;;;19.70;68.10;;;;;;4978103;28;101509;-82
2021/01/26 08:03:05;;;;;;;19.35;4.20;;;19.70;68.30;;;;;;4965878;28;100818;-82
2021/01/26 08:05:42;;;;;;;22.83;4.55;;;19.70;69.20;;;;;;4971399;28;101414;-82
2021/01/26 08:08:09;;;;;;;17.55;4.18;;;19.70;69.30;;;;;;4978697;28;101092;-83
2021/01/26 08:10:35;;;;;;;18.98;4.47;;;19.70;69.20;;;;;;4965115;28;101069;-83
2021/01/26 08:13:00;;;;;;;13.77;3.90;;;19.60;68.50;;;;;;4966120;28;101297;-83
2021/01/26 08:15:31;;;;;;;9.25;4.03;;;19.60;68.40;;;;;;4963563;28;101176;-82
2021/01/26 08:17:56;;;;;;;12.45;3.78;;;19.60;68.40;;;;;;4989192;28;102106;-83
2021/01/26 08:20:32;;;;;;;19.00;4.80;;;19.60;68.20;;;;;;4948841;28;101154;-82
2021/01/26 08:23:05;;;;;;;15.50;3.53;;;19.60;68.20;;;;;;4981899;28;100824;-83
2021/01/26 08:25:33;;;;;;;12.15;3.75;;;19.60;68.10;;;;;;4979381;28;100889;-81
2021/01/26 08:28:06;;;;;;;12.05;3.20;;;19.60;67.60;;;;;;4963728;28;101671;-82
2021/01/26 08:30:50;;;;;;;9.95;3.80;;;19.60;67.70;;;;;;4961594;28;102819;-83
2021/01/26 08:33:19;;;;;;;12.70;4.03;;;19.60;67.80;;;;;;4989454;28;101022;-82
2021/01/26 08:36:04;;;;;;;14.30;3.53;;;19.60;67.50;;;;;;4965396;28;100664;-85
2021/01/26 08:38:53;;;;;;;15.10;3.78;;;19.60;67.80;;;;;;4980497;28;100993;-82
2021/01/26 08:41:39;;;;;;;9.38;3.40;;;19.60;68.00;;;;;;4955130;28;102088;-81
2021/01/26 08:44:28;;;;;;;10.48;3.30;;;19.60;68.20;;;;;;4981293;28;101246;-82
2021/01/26 08:46:54;;;;;;;13.27;3.25;;;19.60;68.10;;;;;;4988807;28;100918;-82
2021/01/26 08:49:30;;;;;;;12.13;3.60;;;19.60;67.80;;;;;;4965070;28;103600;-82
2021/01/26 08:51:55;;;;;;;13.48;3.83;;;19.60;67.70;;;;;;4962236;28;101211;-82
2021/01/26 08:54:43;;;;;;;14.23;3.85;;;19.70;67.70;;;;;;4977717;28;101479;-82
2021/01/26 08:57:28;;;;;;;12.20;3.15;;;19.70;67.60;;;;;;4962144;28;101130;-81
2021/01/26 09:00:12;;;;;;;15.43;3.22;;;19.70;67.20;;;;;;4978276;28;101133;-82
2021/01/26 09:02:45;;;;;;;15.68;3.85;;;19.80;67.00;;;;;;4978082;28;101029;-82
2021/01/26 09:05:12;;;;;;;12.07;3.10;;;19.80;67.00;;;;;;4984057;28;101804;-82
2021/01/26 09:07:45;;;;;;;8.10;3.03;;;19.90;67.00;;;;;;4987413;28;101505;-82
2021/01/26 09:10:30;;;;;;;13.35;3.22;;;19.90;67.00;;;;;;4994734;28;100973;-82
2021/01/26 09:13:12;;;;;;;9.25;3.03;;;19.90;66.60;;;;;;4963306;28;101201;-82
2021/01/26 09:15:43;;;;;;;14.75;3.53;;;19.90;66.70;;;;;;4978289;28;101512;-82
2021/01/26 09:18:09;;;;;;;9.40;3.00;;;19.80;66.90;;;;;;4956831;28;101027;-82
2021/01/26 09:20:34;;;;;;;14.00;3.40;;;19.80;66.50;;;;;;4961133;28;124585;-82
2021/01/26 09:23:08;;;;;;;14.25;3.22;;;19.90;67.20;;;;;;4961430;28;101014;-82
2021/01/26 09:25:43;;;;;;;21.85;3.72;;;19.90;66.70;;;;;;4961799;28;101122;-83
2021/01/26 09:28:14;;;;;;;12.63;3.20;;;19.90;66.80;;;;;;4996771;28;101106;-83
2021/01/26 09:30:41;;;;;;;17.23;3.78;;;19.80;66.80;;;;;;4957461;28;102800;-83
2021/01/26 09:33:12;;;;;;;12.95;3.47;;;19.80;66.50;;;;;;4953234;28;101300;-83
2021/01/26 09:35:46;;;;;;;18.90;3.25;;;19.80;67.00;;;;;;4977362;28;100231;-82
2021/01/26 09:38:19;;;;;;;12.13;2.92;;;19.80;67.00;;;;;;4960163;28;101036;-83
2021/01/26 09:40:56;;;;;;;10.43;3.25;;;19.80;66.50;;;;;;4995356;28;101569;-83
2021/01/26 09:43:27;;;;;;;13.80;3.20;;;19.90;66.40;;;;;;4963390;28;100888;-82
2021/01/26 09:45:53;;;;;;;11.23;2.85;;;19.90;66.00;;;;;;4964827;28;101191;-82
2021/01/26 09:48:34;;;;;;;11.93;2.78;;;19.90;65.70;;;;;;4977053;28;101322;-82
2021/01/26 09:51:28;;;;;;;9.68;3.33;;;19.90;65.90;;;;;;4963494;28;104549;-82
2021/01/26 09:54:05;;;;;;;17.05;3.13;;;19.90;65.80;;;;;;4958029;28;102765;-82
2021/01/26 09:56:31;;;;;;;11.07;3.08;;;19.90;65.60;;;;;;4949705;28;101220;-83
2021/01/26 09:58:57;;;;;;;12.27;3.13;;;19.90;65.30;;;;;;4965851;28;101010;-83
2021/01/26 10:01:22;;;;;;;7.55;2.65;;;20.00;64.80;;;;;;4962527;28;101071;-83
2021/01/26 10:03:52;;;;;;;9.05;2.60;;;20.00;64.40;;;;;;4962386;28;101039;-83
2021/01/26 10:06:18;;;;;;;11.75;2.42;;;20.10;63.70;;;;;;4945006;28;100907;-83
2021/01/26 10:08:43;;;;;;;9.63;2.88;;;20.10;63.80;;;;;;4958540;28;101322;-82
2021/01/26 10:11:19;;;;;;;11.68;3.53;;;20.10;63.40;;;;;;4979593;28;101033;-83
2021/01/26 10:13:48;;;;;;;11.10;2.78;;;20.20;63.50;;;;;;4951908;28;102781;-82
2021/01/26 10:16:30;;;;;;;15.15;3.65;;;20.20;63.60;;;;;;4962997;28;108708;-82
2021/01/26 10:18:59;;;;;;;18.35;3.30;;;20.20;64.40;;;;;;4959785;28;101435;-83
2021/01/26 10:21:29;;;;;;;22.88;3.78;;;20.20;64.90;;;;;;4952783;28;101613;-82
2021/01/26 10:24:03;;;;;;;16.25;3.67;;;20.10;65.30;;;;;;4963011;28;101005;-83
2021/01/26 10:26:31;;;;;;;19.88;3.50;;;20.10;65.50;;;;;;4961604;28;100936;-82
2021/01/26 10:29:02;;;;;;;45.72;4.18;;;20.10;65.30;;;;;;4963939;28;101083;-80
2021/01/26 10:31:29;;;;;;;27.35;4.68;;;20.20;65.60;;;;;;4982842;28;101108;-79
2021/01/26 10:33:54;;;;;;;25.58;4.03;;;20.20;65.30;;;;;;4974672;28;100953;-80
2021/01/26 10:36:29;;;;;;;25.10;4.05;;;20.10;65.30;;;;;;4966300;28;100981;-80
2021/01/26 10:38:55;;;;;;;24.13;4.18;;;20.10;66.00;;;;;;5001066;28;101127;-79
2021/01/26 10:41:29;;;;;;;27.00;4.95;;;20.10;66.30;;;;;;4967899;28;101009;-81
2021/01/26 10:44:05;;;;;;;26.85;4.13;;;20.10;66.30;;;;;;4966026;28;100993;-80
2021/01/26 10:46:53;;;;;;;25.70;4.32;;;20.10;65.90;;;;;;4968129;28;103405;-79
2021/01/26 10:49:30;;;;;;;31.70;5.05;;;20.10;66.30;;;;;;4993942;28;101111;-79
2021/01/26 10:52:06;;;;;;;25.02;4.38;;;20.10;66.30;;;;;;4963896;28;103873;-80
2021/01/26 10:54:31;;;;;;;33.28;4.78;;;20.20;65.80;;;;;;4989037;28;100278;-80
2021/01/26 10:56:57;;;;;;;26.38;4.30;;;20.20;65.20;;;;;;4966312;28;101357;-81
2021/01/26 10:59:23;;;;;;;26.08;4.63;;;20.20;64.90;;;;;;4995168;28;101165;-80
2021/01/26 11:01:48;;;;;;;18.77;4.00;;;20.20;64.90;;;;;;4979925;28;108362;-79
2021/01/26 11:04:14;;;;;;;35.13;4.63;;;20.10;64.70;;;;;;4966459;28;102308;-77
2021/01/26 11:06:40;;;;;;;25.52;5.00;;;20.10;65.40;;;;;;4961816;28;100186;-77
2021/01/26 11:09:06;;;;;;;36.95;5.18;;;20.20;65.00;;;;;;4986821;28;100956;-77
2021/01/26 11:11:35;;;;;;;24.40;4.65;;;20.20;64.80;;;;;;4958238;28;102603;-77
2021/01/26 11:14:03;;;;;;;28.60;4.95;;;20.20;65.20;;;;;;4977778;28;100281;-76
2021/01/26 11:16:29;;;;;;;38.25;5.68;;;20.30;65.00;;;;;;4999085;28;100191;-77
2021/01/26 11:18:55;;;;;;;23.05;5.25;;;20.30;64.80;;;;;;4975150;28;100421;-77
2021/01/26 11:21:21;;;;;;;22.60;4.80;;;20.30;65.00;;;;;;4979806;28;100868;-77
2021/01/26 11:23:46;;;;;;;24.23;5.32;;;20.30;65.00;;;;;;4964883;28;100424;-77
2021/01/26 11:26:16;;;;;;;27.05;4.57;;;20.30;65.20;;;;;;4973267;28;101147;-78
2021/01/26 11:28:43;;;;;;;24.90;5.13;;;20.30;65.00;;;;;;4961603;28;100209;-77
2021/01/26 11:31:09;;;;;;;19.15;4.65;;;20.40;65.70;;;;;;4991680;28;100789;-77
2021/01/26 11:34:08;;;;;;;35.88;5.55;;;20.40;65.10;;;;;;4992874;28;100453;-86
2021/01/26 11:37:29;;;;;;;24.17;4.45;;;20.50;65.20;;;;;;4984155;28;101163;-86
2021/01/26 11:39:55;;;;;;;30.40;4.88;;;20.60;64.90;;;;;;4960048;28;101471;-85
2021/01/26 11:42:24;;;;;;;23.95;4.22;;;20.60;65.40;;;;;;4956432;28;103958;-87
2021/01/26 11:45:03;;;;;;;31.75;4.90;;;20.60;65.30;;;;;;4974549;28;102379;-88
2021/01/26 11:47:33;;;;;;;20.48;4.60;;;20.60;65.10;;;;;;4973632;28;100815;-86
2021/01/26 11:50:00;;;;;;;27.70;4.82;;;20.70;65.30;;;;;;4955049;28;101026;-84
2021/01/26 11:52:27;;;;;;;36.55;5.70;;;20.70;64.80;;;;;;4971886;28;103102;-86
2021/01/26 11:55:25;;;;;;;26.35;4.35;;;20.80;64.90;;;;;;4977307;28;100812;-88
2021/01/26 11:57:57;;;;;;;20.48;4.82;;;20.90;65.00;;;;;;4971194;28;100456;-83
2021/01/26 12:00:25;;;;;;;37.13;5.32;;;20.90;64.80;;;;;;4977614;28;100244;-79
2021/01/26 12:02:50;;;;;;;26.55;4.35;;;20.90;64.90;;;;;;4955711;28;105381;-79
2021/01/26 12:05:16;;;;;;;34.03;6.35;;;20.70;62.40;;;;;;4968994;28;100939;-78
2021/01/26 12:07:42;;;;;;;53.97;10.63;;;20.60;60.50;;;;;;4955676;28;100949;-78
2021/01/26 12:10:08;;;;;;;53.47;14.15;;;20.50;59.60;;;;;;4993511;28;100878;-79
2021/01/26 12:12:54;;;;;;;74.07;16.00;;;20.50;59.10;;;;;;4985098;28;102552;-89
2021/01/26 12:15:25;;;;;;;52.33;13.48;;;20.40;58.40;;;;;;4940246;28;100869;-87
2021/01/26 12:17:51;;;;;;;59.33;14.80;;;20.50;59.60;;;;;;4959530;28;101418;-79
2021/01/26 12:20:17;;;;;;;65.55;14.52;;;20.40;59.00;;;;;;4959615;28;101225;-79
2021/01/26 12:22:51;;;;;;;73.80;15.52;;;20.50;59.90;;;;;;4982766;28;101667;-83
2021/01/26 12:25:28;;;;;;;73.45;14.30;;;20.60;60.40;;;;;;4971070;28;100631;-77
2021/01/26 12:27:57;;;;;;;62.97;13.75;;;20.70;60.60;;;;;;4934128;28;101276;-77
2021/01/26 12:30:26;;;;;;;63.33;14.50;;;20.70;60.00;;;;;;4948502;28;101214;-78
2021/01/26 12:32:54;;;;;;;62.38;14.20;;;20.70;59.90;;;;;;4946917;28;102060;-81
2021/01/26 12:35:22;;;;;;;52.50;12.65;;;20.80;60.10;;;;;;4949326;28;101370;-78
2021/01/26 12:37:48;;;;;;;59.55;12.65;;;20.90;60.30;;;;;;4947149;28;100942;-79
2021/01/26 12:40:14;;;;;;;52.20;12.18;;;20.90;60.40;;;;;;4940820;28;101464;-80
2021/01/26 12:42:40;;;;;;;46.47;12.43;;;21.00;60.50;;;;;;4942084;28;101254;-79
2021/01/26 12:45:08;;;;;;;45.83;11.80;;;20.70;57.70;;;;;;4939594;28;100875;-79
2021/01/26 12:47:34;;;;;;;38.83;10.57;;;20.50;57.80;;;;;;4942654;28;101117;-77
2021/01/26 12:50:00;;;;;;;36.17;10.73;;;20.50;58.40;;;;;;4945816;28;101459;-77
2021/01/26 12:52:26;;;;;;;39.67;9.70;;;20.70;58.90;;;;;;4927570;28;100632;-77
2021/01/26 12:54:51;;;;;;;44.55;10.95;;;20.90;59.00;;;;;;4928850;28;100990;-78
2021/01/26 12:57:17;;;;;;;41.35;11.20;;;21.00;59.10;;;;;;4944886;28;101095;-81
2021/01/26 12:59:43;;;;;;;32.63;10.02;;;21.10;59.40;;;;;;4925221;28;101604;-82
2021/01/26 13:02:09;;;;;;;33.95;9.77;;;21.20;59.60;;;;;;4945351;28;111379;-83
2021/01/26 13:04:34;;;;;;;31.23;8.48;;;21.30;58.90;;;;;;4927795;28;103458;-84
2021/01/26 13:07:00;;;;;;;33.85;8.27;;;21.00;58.20;;;;;;4930658;28;100913;-81
2021/01/26 13:09:25;;;;;;;32.72;8.40;;;21.10;58.50;;;;;;4962897;28;101214;-81
2021/01/26 13:11:51;;;;;;;29.75;8.23;;;21.20;58.80;;;;;;4943640;28;106463;-82
2021/01/26 13:14:17;;;;;;;36.65;9.38;;;21.30;59.00;;;;;;4948789;28;102929;-81
2021/01/26 13:16:42;;;;;;;30.10;8.05;;;21.30;59.20;;;;;;4943616;28;100255;-82
2021/01/26 13:19:08;;;;;;;32.33;8.45;;;21.40;59.40;;;;;;4925873;28;101090;-81
2021/01/26 13:21:34;;;;;;;31.92;8.43;;;21.40;59.40;;;;;;4925780;28;101427;-77
2021/01/26 13:24:01;;;;;;;31.73;7.68;;;21.50;59.50;;;;;;4922751;28;101077;-77
2021/01/26 13:26:28;;;;;;;35.13;8.63;;;21.40;59.40;;;;;;4925394;28;101182;-78
2021/01/26 13:28:54;;;;;;;41.65;8.00;;;21.40;59.60;;;;;;4943275;28;101081;-78
2021/01/26 13:31:20;;;;;;;37.78;8.75;;;21.40;60.00;;;;;;4928363;28;102856;-78
2021/01/26 13:33:46;;;;;;;28.05;7.30;;;21.40;60.10;;;;;;4942827;28;100908;-77
2021/01/26 13:36:12;;;;;;;28.55;7.15;;;21.30;60.30;;;;;;4951202;28;101208;-77
2021/01/26 13:38:39;;;;;;;31.55;7.50;;;21.30;60.40;;;;;;4951799;28;101003;-78
2021/01/26 13:41:05;;;;;;;28.05;6.45;;;21.30;60.60;;;;;;4947632;28;101834;-77
2021/01/26 13:43:30;;;;;;;28.25;7.65;;;21.20;60.80;;;;;;4949994;28;101602;-77
2021/01/26 13:45:56;;;;;;;24.85;7.47;;;21.20;60.90;;;;;;4936066;28;100994;-78
2021/01/26 13:48:22;;;;;;;26.13;7.00;;;21.20;60.70;;;;;;4935137;28;101240;-79
2021/01/26 13:50:48;;;;;;;25.65;7.20;;;21.30;60.90;;;;;;4952506;28;102261;-80
2021/01/26 13:53:14;;;;;;;25.52;7.07;;;21.30;60.50;;;;;;4925467;28;101186;-79
2021/01/26 13:55:40;;;;;;;29.75;7.35;;;21.30;60.40;;;;;;4938379;28;101030;-82
2021/01/26 13:58:05;;;;;;;43.88;8.95;;;21.20;60.00;;;;;;4930627;28;101914;-81